Colquitt, Louisiana
Current Conditions -  °F | °C
As of 10:55 PM on Friday 19 Dec 2014 (Local Time) from KMNE Reporting Station
Overcast Overcast  
Wind Chill: 44°   Ceiling: 700
Heat Index: 46°   Visibility: 10mi
Dew Point: 43°   Wind: 6mph
Humidity: 87%   Direction: 60°ENE
Pressure: 30.21"   Gusts: NA
Location:  32.9128°N, 93.0286°W
Report Text: KMNE 200455Z AUTO 06005KT 10SM OVC007 08/06 A3021 RMK AO2
Loading
Personal Weather Stations






























Interactive Weather Map New forecast layout! Learn more

10-Day Weather Forecast

Advertisements
Track Severe Weather on mobile